Private Wetterstation Sandau
Wetterdaten: Dienstag, 11.09.2012
Datum Zeit Temp. A. Feuchte A. Luftdruck Regen Wind Richtung Richtung Taupunkt Windchill
11.09.2012 00:01 18,1 C 63 % 1014,1 hPa 0,0 l/m 2,2 km/h (1 Bft) S-SO 157 10,9 C 18,1 C
11.09.2012 00:06 18,1 C 63 % 1014,1 hPa 0,0 l/m 0,0 km/h (0 Bft) S 180 10,9 C 18,1 C
11.09.2012 00:11 17,9 C 63 % 1014,0 hPa 0,0 l/m 1,4 km/h (1 Bft) S 180 10,8 C 17,9 C
11.09.2012 00:16 17,9 C 63 % 1013,9 hPa 0,0 l/m 1,4 km/h (1 Bft) S 180 10,8 C 17,9 C
11.09.2012 00:21 17,9 C 63 % 1014,1 hPa 0,0 l/m 1,4 km/h (1 Bft) S 180 10,8 C 17,9 C
11.09.2012 00:26 17,9 C 63 % 1014,0 hPa 0,0 l/m 0,0 km/h (0 Bft) S-SO 157 10,8 C 17,9 C
11.09.2012 00:31 17,8 C 64 % 1013,9 hPa 0,0 l/m 1,4 km/h (1 Bft) S-SO 157 10,9 C 17,8 C
11.09.2012 00:36 17,8 C 64 % 1013,9 hPa 0,0 l/m 0,0 km/h (0 Bft) S-SO 157 10,9 C 17,8 C
11.09.2012 00:41 17,8 C 64 % 1013,9 hPa 0,0 l/m 0,0 km/h (0 Bft) S-SW 202 10,9 C 17,8 C
11.09.2012 00:46 17,7 C 64 % 1013,8 hPa 0,0 l/m 1,1 km/h (1 Bft) S-SO 157 10,8 C 17,7 C
11.09.2012 00:51 17,6 C 64 % 1013,8 hPa 0,0 l/m 0,0 km/h (0 Bft) S-SO 157 10,7 C 17,6 C
11.09.2012 00:56 17,6 C 64 % 1013,7 hPa 0,0 l/m 0,0 km/h (0 Bft) S-SO 157 10,7 C 17,6 C
11.09.2012 01:01 17,4 C 65 % 1013,7 hPa 0,0 l/m 0,0 km/h (0 Bft) S-SO 157 10,8 C 17,4 C
11.09.2012 01:06 17,3 C 64 % 1013,8 hPa 0,0 l/m 0,0 km/h (0 Bft) S-SO 157 10,4 C 17,3 C
11.09.2012 01:11 17,2 C 65 % 1013,5 hPa 0,0 l/m 0,0 km/h (0 Bft) S-SO 157 10,6 C 17,2 C
11.09.2012 01:16 17,1 C 66 % 1013,7 hPa 0,0 l/m 0,0 km/h (0 Bft) S-SO 157 10,7 C 17,1 C
11.09.2012 01:21 17,1 C 67 % 1013,7 hPa 0,0 l/m 1,1 km/h (1 Bft) S-SO 157 10,9 C 17,1 C
11.09.2012 01:26 17,1 C 67 % 1013,8 hPa 0,0 l/m 0,0 km/h (0 Bft) S-SO 157 10,9 C 17,1 C
11.09.2012 01:31 17,1 C 66 % 1013,8 hPa 0,0 l/m 0,0 km/h (0 Bft) S-SO 157 10,7 C 17,1 C
11.09.2012 01:36 16,9 C 67 % 1013,7 hPa 0,0 l/m 0,0 km/h (0 Bft) S-SO 157 10,7 C 16,9 C
11.09.2012 01:41 16,9 C 67 % 1013,8 hPa 0,0 l/m 0,0 km/h (0 Bft) S-SO 157 10,7 C 16,9 C
11.09.2012 01:46 16,8 C 68 % 1013,7 hPa 0,0 l/m 0,0 km/h (0 Bft) S-SO 157 10,9 C 16,8 C
11.09.2012 01:51 16,7 C 68 % 1013,6 hPa 0,0 l/m 0,0 km/h (0 Bft) S-SO 157 10,8 C 16,7 C
11.09.2012 01:56 16,6 C 68 % 1013,6 hPa 0,0 l/m 0,0 km/h (0 Bft) S-SO 157 10,7 C 16,6 C
11.09.2012 02:01 16,5 C 69 % 1013,6 hPa 0,0 l/m 0,0 km/h (0 Bft) S-SO 157 10,8 C 16,5 C
11.09.2012 02:06 16,4 C 70 % 1013,6 hPa 0,0 l/m 1,4 km/h (1 Bft) S-SO 157 10,9 C 16,4 C
11.09.2012 02:11 16,4 C 70 % 1013,6 hPa 0,0 l/m 0,0 km/h (0 Bft) S-SO 157 10,9 C 16,4 C
11.09.2012 02:16 16,4 C 70 % 1013,7 hPa 0,0 l/m 0,0 km/h (0 Bft) S-SO 157 10,9 C 16,4 C
11.09.2012 02:21 16,3 C 70 % 1013,5 hPa 0,0 l/m 0,0 km/h (0 Bft) S-SO 157 10,8 C 16,3 C
11.09.2012 02:26 16,3 C 69 % 1013,6 hPa 0,0 l/m 0,0 km/h (0 Bft) S-SO 157 10,6 C 16,3 C
11.09.2012 02:31 16,2 C 70 % 1013,5 hPa 0,0 l/m 0,0 km/h (0 Bft) S-SO 157 10,7 C 16,2 C
11.09.2012 02:36 16,2 C 70 % 1013,5 hPa 0,0 l/m 0,0 km/h (0 Bft) S-SO 157 10,7 C 16,2 C
11.09.2012 02:41 16,3 C 69 % 1013,5 hPa 0,0 l/m 0,0 km/h (0 Bft) S-SO 157 10,6 C 16,3 C
11.09.2012 02:46 16,3 C 69 % 1013,4 hPa 0,0 l/m 2,2 km/h (1 Bft) S-SO 157 10,6 C 16,3 C
11.09.2012 02:51 16,4 C 69 % 1013,4 hPa 0,0 l/m 0,0 km/h (0 Bft) S-SO 157 10,7 C 16,4 C
11.09.2012 02:56 16,4 C 69 % 1013,4 hPa 0,0 l/m 0,0 km/h (0 Bft) S-SO 157 10,7 C 16,4 C
11.09.2012 03:01 16,4 C 69 % 1013,4 hPa 0,0 l/m 2,2 km/h (1 Bft) S-SO 157 10,7 C 16,4 C
11.09.2012 03:06 16,3 C 69 % 1013,4 hPa 0,0 l/m 3,6 km/h (1 Bft) S-SO 157 10,6 C 16,3 C
11.09.2012 03:11 16,3 C 70 % 1013,4 hPa 0,0 l/m 1,4 km/h (1 Bft) SO 135 10,8 C 16,3 C
11.09.2012 03:16 16,3 C 70 % 1013,3 hPa 0,0 l/m 0,0 km/h (0 Bft) SO 135 10,8 C 16,3 C
11.09.2012 03:21 16,2 C 70 % 1013,2 hPa 0,0 l/m 2,5 km/h (1 Bft) SO 135 10,7 C 16,2 C
11.09.2012 03:26 16,1 C 70 % 1013,1 hPa 0,0 l/m 0,0 km/h (0 Bft) SO 135 10,6 C 16,1 C
11.09.2012 03:31 16,1 C 70 % 1013,3 hPa 0,0 l/m 3,2 km/h (1 Bft) O 90 10,6 C 16,1 C
11.09.2012 03:36 15,9 C 71 % 1013,2 hPa 0,0 l/m 0,0 km/h (0 Bft) O-NO 67 10,6 C 15,9 C
11.09.2012 03:41 15,9 C 71 % 1013,2 hPa 0,0 l/m 0,0 km/h (0 Bft) O-NO 67 10,6 C 15,9 C
11.09.2012 03:46 15,8 C 71 % 1013,1 hPa 0,0 l/m 0,0 km/h (0 Bft) O-NO 67 10,6 C 15,8 C
11.09.2012 03:51 15,7 C 72 % 1013,1 hPa 0,0 l/m 0,0 km/h (0 Bft) O-NO 67 10,7 C 15,7 C
11.09.2012 03:56 15,6 C 72 % 1013,0 hPa 0,0 l/m 0,0 km/h (0 Bft) SO 135 10,6 C 15,6 C
11.09.2012 04:01 15,5 C 73 % 1013,1 hPa 0,0 l/m 0,0 km/h (0 Bft) SO 135 10,7 C 15,5 C
11.09.2012 04:06 15,4 C 73 % 1013,0 hPa 0,0 l/m 0,0 km/h (0 Bft) SO 135 10,6 C 15,4 C
11.09.2012 04:11 15,4 C 74 % 1012,9 hPa 0,0 l/m 1,4 km/h (1 Bft) SO 135 10,8 C 15,4 C
11.09.2012 04:16 15,3 C 74 % 1012,9 hPa 0,0 l/m 0,0 km/h (0 Bft) SO 135 10,7 C 15,3 C
11.09.2012 04:21 15,2 C 74 % 1012,8 hPa 0,0 l/m 0,0 km/h (0 Bft) SO 135 10,6 C 15,2 C
11.09.2012 04:26 15,1 C 74 % 1012,8 hPa 0,0 l/m 0,0 km/h (0 Bft) SO 135 10,5 C 15,1 C
11.09.2012 04:31 14,9 C 75 % 1012,8 hPa 0,0 l/m 0,0 km/h (0 Bft) SO 135 10,5 C 14,9 C
11.09.2012 04:36 14,9 C 75 % 1012,8 hPa 0,0 l/m 5,0 km/h (1 Bft) SO 135 10,5 C 14,9 C
11.09.2012 04:41 14,9 C 76 % 1012,6 hPa 0,0 l/m 5,0 km/h (1 Bft) S-SO 157 10,7 C 14,9 C
11.09.2012 04:46 14,9 C 75 % 1012,7 hPa 0,0 l/m 4,7 km/h (1 Bft) SO 135 10,5 C 14,9 C
11.09.2012 04:51 14,9 C 75 % 1012,7 hPa 0,0 l/m 0,0 km/h (0 Bft) SO 135 10,5 C 14,9 C
11.09.2012 04:56 14,9 C 75 % 1012,7 hPa 0,0 l/m 0,0 km/h (0 Bft) SO 135 10,5 C 14,9 C
11.09.2012 05:01 14,9 C 75 % 1012,5 hPa 0,0 l/m 2,2 km/h (1 Bft) SO 135 10,5 C 14,9 C
11.09.2012 05:06 14,9 C 76 % 1012,5 hPa 0,0 l/m 2,5 km/h (1 Bft) SO 135 10,7 C 14,9 C
11.09.2012 05:11 14,9 C 75 % 1012,4 hPa 0,0 l/m 0,0 km/h (0 Bft) SO 135 10,5 C 14,9 C
11.09.2012 05:16 14,9 C 76 % 1012,5 hPa 0,0 l/m 0,0 km/h (0 Bft) SO 135 10,7 C 14,9 C
11.09.2012 05:21 14,9 C 75 % 1012,5 hPa 0,0 l/m 0,0 km/h (0 Bft) SO 135 10,5 C 14,9 C
11.09.2012 05:26 14,8 C 75 % 1012,5 hPa 0,0 l/m 1,4 km/h (1 Bft) SO 135 10,4 C 14,8 C
11.09.2012 05:31 14,8 C 76 % 1012,4 hPa 0,0 l/m 0,0 km/h (0 Bft) SO 135 10,6 C 14,8 C
11.09.2012 05:36 14,8 C 76 % 1012,5 hPa 0,0 l/m 0,0 km/h (0 Bft) SO 135 10,6 C 14,8 C
11.09.2012 05:41 14,7 C 76 % 1012,4 hPa 0,0 l/m 0,0 km/h (0 Bft) SO 135 10,5 C 14,7 C
11.09.2012 05:46 14,7 C 76 % 1012,3 hPa 0,0 l/m 0,0 km/h (0 Bft) SO 135 10,5 C 14,7 C
11.09.2012 05:51 14,6 C 76 % 1012,4 hPa 0,0 l/m 0,0 km/h (0 Bft) SO 135 10,4 C 14,6 C
11.09.2012 05:56 14,6 C 76 % 1012,4 hPa 0,0 l/m 0,0 km/h (0 Bft) SO 135 10,4 C 14,6 C
11.09.2012 06:01 14,5 C 76 % 1012,4 hPa 0,0 l/m 0,0 km/h (0 Bft) SO 135 10,3 C 14,5 C
11.09.2012 06:06 14,5 C 76 % 1012,4 hPa 0,0 l/m 0,0 km/h (0 Bft) SO 135 10,3 C 14,5 C
11.09.2012 06:11 14,5 C 77 % 1012,4 hPa 0,0 l/m 0,0 km/h (0 Bft) SO 135 10,5 C 14,5 C
11.09.2012 06:16 14,5 C 77 % 1012,4 hPa 0,0 l/m 0,0 km/h (0 Bft) O-SO 112 10,5 C 14,5 C
11.09.2012 06:21 14,4 C 77 % 1012,4 hPa 0,0 l/m 0,0 km/h (0 Bft) O-SO 112 10,4 C 14,4 C
11.09.2012 06:26 14,4 C 77 % 1012,3 hPa 0,0 l/m 0,0 km/h (0 Bft) O-SO 112 10,4 C 14,4 C
11.09.2012 06:31 14,4 C 77 % 1012,2 hPa 0,0 l/m 0,0 km/h (0 Bft) O-SO 112 10,4 C 14,4 C
11.09.2012 06:36 14,4 C 77 % 1012,4 hPa 0,0 l/m 0,0 km/h (0 Bft) O-SO 112 10,4 C 14,4 C
11.09.2012 06:41 14,3 C 77 % 1012,5 hPa 0,0 l/m 0,0 km/h (0 Bft) O-SO 112 10,3 C 14,3 C
11.09.2012 06:46 14,3 C 77 % 1012,3 hPa 0,0 l/m 0,0 km/h (0 Bft) O-SO 112 10,3 C 14,3 C
11.09.2012 06:51 14,3 C 77 % 1012,1 hPa 0,0 l/m 0,0 km/h (0 Bft) SO 135 10,3 C 14,3 C
11.09.2012 06:56 14,3 C 77 % 1012,2 hPa 0,0 l/m 0,0 km/h (0 Bft) SO 135 10,3 C 14,3 C
11.09.2012 07:01 14,3 C 77 % 1012,2 hPa 0,0 l/m 0,0 km/h (0 Bft) SO 135 10,3 C 14,3 C
11.09.2012 07:06 14,3 C 77 % 1012,3 hPa 0,0 l/m 0,0 km/h (0 Bft) SO 135 10,3 C 14,3 C
11.09.2012 07:11 14,4 C 77 % 1012,4 hPa 0,0 l/m 0,0 km/h (0 Bft) SO 135 10,4 C 14,4 C
11.09.2012 07:16 14,5 C 77 % 1012,3 hPa 0,0 l/m 2,2 km/h (1 Bft) SO 135 10,5 C 14,5 C
11.09.2012 07:21 14,8 C 77 % 1012,3 hPa 0,0 l/m 2,2 km/h (1 Bft) SO 135 10,8 C 14,8 C
11.09.2012 07:26 14,9 C 77 % 1012,3 hPa 0,0 l/m 5,4 km/h (1 Bft) SO 135 10,9 C 14,9 C
11.09.2012 07:31 15,3 C 76 % 1012,3 hPa 0,0 l/m 5,4 km/h (1 Bft) SO 135 11,1 C 15,3 C
11.09.2012 07:36 15,6 C 75 % 1012,3 hPa 0,0 l/m 0,0 km/h (0 Bft) SO 135 11,2 C 15,6 C
11.09.2012 07:41 15,9 C 74 % 1012,2 hPa 0,0 l/m 0,0 km/h (0 Bft) SO 135 11,3 C 15,9 C
11.09.2012 07:46 16,2 C 74 % 1012,3 hPa 0,0 l/m 2,5 km/h (1 Bft) SO 135 11,6 C 16,2 C
11.09.2012 07:51 16,3 C 72 % 1012,2 hPa 0,0 l/m 3,2 km/h (1 Bft) SO 135 11,2 C 16,3 C
11.09.2012 07:56 16,4 C 72 % 1012,2 hPa 0,0 l/m 2,5 km/h (1 Bft) SO 135 11,3 C 16,4 C
11.09.2012 08:01 16,6 C 72 % 1012,2 hPa 0,0 l/m 0,0 km/h (0 Bft) SO 135 11,5 C 16,6 C
11.09.2012 08:06 16,8 C 71 % 1012,0 hPa 0,0 l/m 3,6 km/h (1 Bft) SO 135 11,5 C 16,8 C
11.09.2012 08:11 16,9 C 71 % 1011,9 hPa 0,0 l/m 4,0 km/h (1 Bft) SO 135 11,6 C 16,9 C
11.09.2012 08:16 17,1 C 70 % 1011,7 hPa 0,0 l/m 7,2 km/h (2 Bft) SO 135 11,6 C 17,1 C
11.09.2012 08:21 17,2 C 70 % 1011,7 hPa 0,0 l/m 6,8 km/h (2 Bft) S-SO 157 11,7 C 17,2 C
11.09.2012 08:26 17,3 C 70 % 1011,7 hPa 0,0 l/m 4,3 km/h (1 Bft) SO 135 11,8 C 17,3 C
11.09.2012 08:31 17,4 C 70 % 1011,6 hPa 0,0 l/m 2,2 km/h (1 Bft) S-SO 157 11,9 C 17,4 C
11.09.2012 08:36 17,7 C 70 % 1011,6 hPa 0,0 l/m 4,7 km/h (1 Bft) S-SO 157 12,2 C 17,7 C
11.09.2012 08:41 17,9 C 70 % 1011,5 hPa 0,0 l/m 2,2 km/h (1 Bft) SO 135 12,3 C 17,9 C
11.09.2012 08:46 18,2 C 70 % 1011,4 hPa 0,0 l/m 5,4 km/h (1 Bft) S 180 12,6 C 18,2 C
11.09.2012 08:51 18,5 C 70 % 1011,5 hPa 0,0 l/m 1,4 km/h (1 Bft) SO 135 12,9 C 18,5 C
11.09.2012 08:56 18,9 C 68 % 1011,4 hPa 0,0 l/m 5,0 km/h (1 Bft) SO 135 12,9 C 18,9 C
11.09.2012 09:01 19,4 C 67 % 1011,3 hPa 0,0 l/m 2,9 km/h (1 Bft) S-SO 157 13,1 C 19,4 C
11.09.2012 09:06 19,9 C 66 % 1011,2 hPa 0,0 l/m 6,8 km/h (2 Bft) SO 135 13,4 C 19,9 C
11.09.2012 09:11 20,4 C 65 % 1011,3 hPa 0,0 l/m 2,5 km/h (1 Bft) SW 225 13,6 C 20,4 C
11.09.2012 09:16 20,6 C 63 % 1011,2 hPa 0,0 l/m 6,1 km/h (2 Bft) SW 225 13,3 C 20,6 C
11.09.2012 09:21 20,8 C 62 % 1011,4 hPa 0,0 l/m 1,8 km/h (1 Bft) S 180 13,2 C 20,8 C
11.09.2012 09:26 20,8 C 62 % 1011,2 hPa 0,0 l/m 6,1 km/h (2 Bft) S-SW 202 13,2 C 20,8 C
11.09.2012 09:31 20,9 C 62 % 1011,2 hPa 0,0 l/m 0,0 km/h (0 Bft) S-SW 202 13,3 C 20,9 C
11.09.2012 09:36 21,2 C 61 % 1011,1 hPa 0,0 l/m 7,6 km/h (2 Bft) S-SW 202 13,4 C 21,2 C
11.09.2012 09:41 21,3 C 61 % 1011,1 hPa 0,0 l/m 4,0 km/h (1 Bft) S-SO 157 13,5 C 21,3 C
11.09.2012 09:46 21,6 C 60 % 1011,0 hPa 0,0 l/m 8,3 km/h (2 Bft) S 180 13,5 C 21,6 C
11.09.2012 09:51 21,8 C 60 % 1011,2 hPa 0,0 l/m 6,8 km/h (2 Bft) S-SO 157 13,7 C 21,8 C
11.09.2012 09:56 21,9 C 60 % 1011,0 hPa 0,0 l/m 4,3 km/h (1 Bft) S-SO 157 13,8 C 21,9 C
11.09.2012 10:01 22,1 C 60 % 1011,0 hPa 0,0 l/m 3,6 km/h (1 Bft) W-SW 247 14,0 C 22,1 C
11.09.2012 10:06 22,3 C 59 % 1011,1 hPa 0,0 l/m 0,0 km/h (0 Bft) S-SW 202 13,9 C 22,3 C
11.09.2012 10:11 22,6 C 59 % 1011,1 hPa 0,0 l/m 3,2 km/h (1 Bft) S-SW 202 14,2 C 22,6 C
11.09.2012 10:16 22,8 C 58 % 1011,2 hPa 0,0 l/m 4,0 km/h (1 Bft) W-SW 247 14,1 C 22,8 C
11.09.2012 10:21 23,1 C 57 % 1011,1 hPa 0,0 l/m 9,0 km/h (2 Bft) W-SW 247 14,1 C 23,1 C
11.09.2012 10:26 23,4 C 56 % 1011,1 hPa 0,0 l/m 8,3 km/h (2 Bft) W-SW 247 14,1 C 23,4 C
11.09.2012 10:31 23,6 C 55 % 1011,2 hPa 0,0 l/m 8,3 km/h (2 Bft) W-SW 247 14,0 C 23,6 C
11.09.2012 10:36 23,8 C 54 % 1011,3 hPa 0,0 l/m 8,6 km/h (2 Bft) W-SW 247 13,9 C 23,8 C
11.09.2012 10:41 24,0 C 53 % 1011,3 hPa 0,0 l/m 3,6 km/h (1 Bft) SW 225 13,8 C 24,0 C
11.09.2012 10:46 24,1 C 53 % 1011,2 hPa 0,0 l/m 5,4 km/h (1 Bft) SW 225 13,9 C 24,1 C
11.09.2012 10:51 24,1 C 53 % 1011,2 hPa 0,0 l/m 8,6 km/h (2 Bft) W-SW 247 13,9 C 24,1 C
11.09.2012 10:56 24,1 C 53 % 1011,3 hPa 0,0 l/m 13,7 km/h (3 Bft) SW 225 13,9 C 24,1 C
11.09.2012 11:01 24,3 C 53 % 1011,4 hPa 0,0 l/m 6,1 km/h (2 Bft) W-NW 292 14,1 C 24,3 C
11.09.2012 11:06 24,4 C 53 % 1011,3 hPa 0,0 l/m 8,6 km/h (2 Bft) W 270 14,2 C 24,4 C
11.09.2012 11:11 24,4 C 53 % 1011,3 hPa 0,0 l/m 4,0 km/h (1 Bft) W-SW 247 14,2 C 24,4 C
11.09.2012 11:16 24,5 C 52 % 1011,4 hPa 0,0 l/m 16,6 km/h (3 Bft) NW 315 14,0 C 24,5 C
11.09.2012 11:21 24,7 C 51 % 1011,5 hPa 0,0 l/m 10,1 km/h (2 Bft) SW 225 13,9 C 24,7 C
11.09.2012 11:26 24,8 C 51 % 1011,4 hPa 0,0 l/m 24,5 km/h (4 Bft) W-SW 247 14,0 C 24,8 C
11.09.2012 11:31 24,9 C 51 % 1011,6 hPa 0,0 l/m 21,2 km/h (4 Bft) NW 315 14,1 C 24,9 C
11.09.2012 11:36 24,9 C 50 % 1011,6 hPa 0,0 l/m 18,0 km/h (3 Bft) W-SW 247 13,7 C 24,9 C
11.09.2012 11:41 24,8 C 51 % 1011,6 hPa 0,0 l/m 3,6 km/h (1 Bft) W-NW 292 14,0 C 24,8 C
11.09.2012 11:46 24,8 C 51 % 1011,7 hPa 0,0 l/m 9,0 km/h (2 Bft) W-NW 292 14,0 C 24,8 C
11.09.2012 11:51 24,8 C 52 % 1011,6 hPa 0,0 l/m 8,6 km/h (2 Bft) W-NW 292 14,3 C 24,8 C
11.09.2012 11:56 24,7 C 52 % 1011,7 hPa 0,0 l/m 8,3 km/h (2 Bft) W 270 14,2 C 24,7 C
11.09.2012 12:01 24,5 C 52 % 1011,6 hPa 0,0 l/m 16,6 km/h (3 Bft) W 270 14,0 C 24,5 C
11.09.2012 12:06 24,3 C 53 % 1011,8 hPa 0,0 l/m 6,1 km/h (2 Bft) S-SW 202 14,1 C 24,3 C
11.09.2012 12:11 24,1 C 52 % 1011,7 hPa 0,0 l/m 6,1 km/h (2 Bft) W 270 13,6 C 24,1 C
11.09.2012 12:16 23,8 C 53 % 1011,7 hPa 0,0 l/m 14,0 km/h (3 Bft) W-SW 247 13,6 C 23,8 C
11.09.2012 12:21 23,4 C 54 % 1011,8 hPa 0,0 l/m 15,8 km/h (3 Bft) W 270 13,6 C 23,4 C
11.09.2012 12:26 22,9 C 58 % 1011,9 hPa 0,0 l/m 16,6 km/h (3 Bft) W 270 14,2 C 22,9 C
11.09.2012 12:31 22,0 C 62 % 1011,9 hPa 0,5 l/m 5,4 km/h (1 Bft) W 270 14,4 C 22,0 C
11.09.2012 12:36 21,3 C 65 % 1011,5 hPa 0,0 l/m 9,7 km/h (2 Bft) W-SW 247 14,4 C 21,3 C
11.09.2012 12:41 20,8 C 68 % 1011,7 hPa 0,5 l/m 4,3 km/h (1 Bft) S-SW 202 14,7 C 20,8 C
11.09.2012 12:46 20,4 C 70 % 1011,6 hPa 0,0 l/m 8,6 km/h (2 Bft) S-SW 202 14,7 C 20,4 C
11.09.2012 12:51 20,1 C 71 % 1011,7 hPa 0,0 l/m 3,2 km/h (1 Bft) S-SW 202 14,7 C 20,1 C
11.09.2012 12:56 19,9 C 73 % 1011,6 hPa 0,0 l/m 10,1 km/h (2 Bft) S-SO 157 14,9 C 19,9 C
11.09.2012 13:01 19,9 C 74 % 1011,5 hPa 0,0 l/m 6,1 km/h (2 Bft) W-SW 247 15,1 C 19,9 C
11.09.2012 13:06 19,9 C 74 % 1011,4 hPa 0,0 l/m 1,4 km/h (1 Bft) SW 225 15,1 C 19,9 C
11.09.2012 13:11 19,9 C 75 % 1011,2 hPa 0,0 l/m 5,0 km/h (1 Bft) S-SO 157 15,3 C 19,9 C
11.09.2012 13:16 19,9 C 76 % 1011,0 hPa 0,0 l/m 4,7 km/h (1 Bft) S-SO 157 15,5 C 19,9 C
11.09.2012 13:21 19,9 C 76 % 1010,9 hPa 0,0 l/m 5,0 km/h (1 Bft) S 180 15,5 C 19,9 C
11.09.2012 13:26 20,1 C 76 % 1010,7 hPa 0,0 l/m 5,8 km/h (2 Bft) S 180 15,7 C 20,1 C
11.09.2012 13:31 20,1 C 76 % 1010,7 hPa 0,0 l/m 3,2 km/h (1 Bft) S-SO 157 15,7 C 20,1 C
11.09.2012 13:36 20,2 C 76 % 1010,6 hPa 0,0 l/m 4,7 km/h (1 Bft) S-SW 202 15,8 C 20,2 C
11.09.2012 13:41 20,2 C 76 % 1010,7 hPa 0,0 l/m 5,8 km/h (2 Bft) S 180 15,8 C 20,2 C
11.09.2012 13:46 20,3 C 76 % 1010,9 hPa 0,0 l/m 3,6 km/h (1 Bft) S 180 15,9 C 20,3 C
11.09.2012 13:51 20,3 C 76 % 1010,8 hPa 0,0 l/m 6,1 km/h (2 Bft) S-SO 157 15,9 C 20,3 C
11.09.2012 13:56 20,4 C 77 % 1010,8 hPa 0,0 l/m 3,2 km/h (1 Bft) W-SW 247 16,2 C 20,4 C
11.09.2012 14:01 20,5 C 76 % 1010,8 hPa 0,0 l/m 8,6 km/h (2 Bft) W-SW 247 16,1 C 20,5 C
11.09.2012 14:06 20,8 C 74 % 1010,8 hPa 0,0 l/m 15,5 km/h (3 Bft) SW 225 16,0 C 20,8 C
11.09.2012 14:11 20,9 C 74 % 1010,6 hPa 0,0 l/m 9,0 km/h (2 Bft) SW 225 16,1 C 20,9 C
11.09.2012 14:16 21,1 C 74 % 1010,6 hPa 0,0 l/m 3,6 km/h (1 Bft) SW 225 16,3 C 21,1 C
11.09.2012 14:21 21,3 C 73 % 1010,4 hPa 0,0 l/m 13,0 km/h (3 Bft) W-SW 247 16,3 C 21,3 C
11.09.2012 14:26 21,4 C 72 % 1010,2 hPa 0,0 l/m 10,4 km/h (2 Bft) S-SW 202 16,1 C 21,4 C
11.09.2012 14:31 21,7 C 72 % 1010,1 hPa 0,0 l/m 7,9 km/h (2 Bft) W-SW 247 16,4 C 21,7 C
11.09.2012 14:36 22,1 C 72 % 1010,0 hPa 0,0 l/m 7,2 km/h (2 Bft) W-SW 247 16,8 C 22,1 C
11.09.2012 14:41 22,2 C 70 % 1009,9 hPa 0,0 l/m 13,0 km/h (3 Bft) W-SW 247 16,5 C 22,2 C
11.09.2012 14:46 22,2 C 70 % 1009,9 hPa 0,0 l/m 14,8 km/h (3 Bft) W-SW 247 16,5 C 22,2 C
11.09.2012 14:51 22,1 C 70 % 1009,7 hPa 0,0 l/m 5,8 km/h (2 Bft) W-SW 247 16,4 C 22,1 C
11.09.2012 14:56 22,2 C 69 % 1009,9 hPa 0,0 l/m 16,9 km/h (3 Bft) SW 225 16,2 C 22,2 C
11.09.2012 15:01 22,2 C 69 % 1009,7 hPa 0,0 l/m 11,9 km/h (2 Bft) S-SW 202 16,2 C 22,2 C
11.09.2012 15:06 22,3 C 69 % 1009,8 hPa 0,0 l/m 10,1 km/h (2 Bft) SW 225 16,3 C 22,3 C
11.09.2012 15:11 22,4 C 69 % 1009,9 hPa 0,0 l/m 15,1 km/h (3 Bft) W-SW 247 16,4 C 22,4 C
11.09.2012 15:16 22,4 C 68 % 1009,7 hPa 0,0 l/m 16,6 km/h (3 Bft) S-SW 202 16,2 C 22,4 C
11.09.2012 15:21 22,4 C 67 % 1009,9 hPa 0,0 l/m 15,5 km/h (3 Bft) W-SW 247 16,0 C 22,4 C
11.09.2012 15:26 22,3 C 67 % 1009,8 hPa 0,0 l/m 14,8 km/h (3 Bft) W 270 15,9 C 22,3 C
11.09.2012 15:31 22,2 C 67 % 1009,8 hPa 0,0 l/m 15,1 km/h (3 Bft) W-SW 247 15,8 C 22,2 C
11.09.2012 15:36 22,2 C 67 % 1009,8 hPa 0,0 l/m 10,1 km/h (2 Bft) W-SW 247 15,8 C 22,2 C
11.09.2012 15:41 22,1 C 68 % 1009,8 hPa 0,0 l/m 10,8 km/h (2 Bft) SW 225 15,9 C 22,1 C
11.09.2012 15:46 22,2 C 68 % 1009,6 hPa 0,0 l/m 8,6 km/h (2 Bft) SW 225 16,0 C 22,2 C
11.09.2012 15:51 22,1 C 68 % 1009,6 hPa 0,0 l/m 23,8 km/h (4 Bft) S-SW 202 15,9 C 22,1 C
11.09.2012 15:56 22,1 C 68 % 1009,5 hPa 0,0 l/m 7,2 km/h (2 Bft) W-SW 247 15,9 C 22,1 C
11.09.2012 16:01 22,2 C 68 % 1009,5 hPa 0,0 l/m 9,7 km/h (2 Bft) SW 225 16,0 C 22,2 C
11.09.2012 16:06 22,3 C 68 % 1009,4 hPa 0,0 l/m 13,7 km/h (3 Bft) S-SW 202 16,1 C 22,3 C
11.09.2012 16:11 22,4 C 68 % 1009,3 hPa 0,0 l/m 14,8 km/h (3 Bft) SW 225 16,2 C 22,4 C
11.09.2012 16:16 22,6 C 68 % 1009,2 hPa 0,0 l/m 7,9 km/h (2 Bft) SW 225 16,4 C 22,6 C
11.09.2012 16:21 22,9 C 67 % 1009,2 hPa 0,0 l/m 8,6 km/h (2 Bft) W-SW 247 16,4 C 22,9 C
11.09.2012 16:26 23,1 C 66 % 1009,2 hPa 0,0 l/m 20,9 km/h (4 Bft) W 270 16,4 C 23,1 C
11.09.2012 16:31 23,2 C 65 % 1009,0 hPa 0,0 l/m 6,1 km/h (2 Bft) S-SW 202 16,2 C 23,2 C
11.09.2012 16:36 23,4 C 65 % 1008,9 hPa 0,0 l/m 11,5 km/h (2 Bft) SW 225 16,4 C 23,4 C
11.09.2012 16:41 23,3 C 65 % 1009,1 hPa 0,0 l/m 10,1 km/h (2 Bft) S-SW 202 16,3 C 23,3 C
11.09.2012 16:46 23,3 C 65 % 1008,9 hPa 0,0 l/m 14,4 km/h (3 Bft) W-SW 247 16,3 C 23,3 C
11.09.2012 16:51 23,1 C 64 % 1008,8 hPa 0,0 l/m 10,8 km/h (2 Bft) SW 225 15,9 C 23,1 C
11.09.2012 16:56 22,9 C 64 % 1008,7 hPa 0,0 l/m 4,3 km/h (1 Bft) S-SW 202 15,7 C 22,9 C
11.09.2012 17:01 22,8 C 64 % 1008,7 hPa 0,0 l/m 14,4 km/h (3 Bft) W-SW 247 15,6 C 22,8 C
11.09.2012 17:06 22,8 C 64 % 1008,6 hPa 0,0 l/m 6,5 km/h (2 Bft) S-SW 202 15,6 C 22,8 C
11.09.2012 17:11 22,8 C 64 % 1008,7 hPa 0,0 l/m 7,2 km/h (2 Bft) SW 225 15,6 C 22,8 C
11.09.2012 17:16 22,8 C 64 % 1008,6 hPa 0,0 l/m 10,1 km/h (2 Bft) W-SW 247 15,6 C 22,8 C
11.09.2012 17:21 22,9 C 65 % 1008,6 hPa 0,0 l/m 7,9 km/h (2 Bft) W-SW 247 16,0 C 22,9 C
11.09.2012 17:26 22,8 C 64 % 1008,5 hPa 0,0 l/m 7,6 km/h (2 Bft) S-SW 202 15,6 C 22,8 C
11.09.2012 17:31 22,6 C 64 % 1008,4 hPa 0,0 l/m 13,7 km/h (3 Bft) SW 225 15,4 C 22,6 C
11.09.2012 17:36 22,5 C 64 % 1008,4 hPa 0,0 l/m 14,8 km/h (3 Bft) W-SW 247 15,3 C 22,5 C
11.09.2012 17:41 22,4 C 65 % 1008,3 hPa 0,0 l/m 9,7 km/h (2 Bft) W-SW 247 15,5 C 22,4 C
11.09.2012 17:46 22,2 C 65 % 1008,2 hPa 0,0 l/m 7,2 km/h (2 Bft) S-SW 202 15,3 C 22,2 C
11.09.2012 17:51 22,1 C 65 % 1008,3 hPa 0,0 l/m 13,0 km/h (3 Bft) SW 225 15,2 C 22,1 C
11.09.2012 17:56 21,9 C 66 % 1008,3 hPa 0,0 l/m 8,6 km/h (2 Bft) W-SW 247 15,3 C 21,9 C
11.09.2012 18:01 21,9 C 67 % 1008,2 hPa 0,0 l/m 14,0 km/h (3 Bft) SW 225 15,5 C 21,9 C
11.09.2012 18:06 21,8 C 67 % 1008,2 hPa 0,0 l/m 5,0 km/h (1 Bft) S-SW 202 15,4 C 21,8 C
11.09.2012 18:11 21,6 C 67 % 1008,1 hPa 0,0 l/m 8,6 km/h (2 Bft) S-SW 202 15,2 C 21,6 C
11.09.2012 18:16 21,6 C 67 % 1008,3 hPa 0,0 l/m 8,6 km/h (2 Bft) S 180 15,2 C 21,6 C
11.09.2012 18:21 21,6 C 67 % 1008,2 hPa 0,0 l/m 7,6 km/h (2 Bft) W-SW 247 15,2 C 21,6 C
11.09.2012 18:26 21,5 C 67 % 1008,3 hPa 0,0 l/m 14,8 km/h (3 Bft) SW 225 15,1 C 21,5 C
11.09.2012 18:31 21,4 C 68 % 1008,5 hPa 0,0 l/m 12,2 km/h (2 Bft) W-SW 247 15,2 C 21,4 C
11.09.2012 18:36 21,4 C 68 % 1008,5 hPa 0,0 l/m 2,5 km/h (1 Bft) SW 225 15,2 C 21,4 C
11.09.2012 18:41 21,3 C 68 % 1008,5 hPa 0,0 l/m 4,3 km/h (1 Bft) SW 225 15,1 C 21,3 C
11.09.2012 18:46 21,3 C 69 % 1008,6 hPa 0,0 l/m 0,0 km/h (0 Bft) SW 225 15,4 C 21,3 C
11.09.2012 18:51 21,2 C 69 % 1008,5 hPa 0,0 l/m 10,4 km/h (2 Bft) W-SW 247 15,3 C 21,2 C
11.09.2012 18:56 21,1 C 70 % 1008,5 hPa 0,0 l/m 3,6 km/h (1 Bft) SW 225 15,4 C 21,1 C
11.09.2012 19:01 21,1 C 70 % 1008,4 hPa 0,0 l/m 0,0 km/h (0 Bft) S-SW 202 15,4 C 21,1 C
11.09.2012 19:06 21,0 C 70 % 1008,4 hPa 0,0 l/m 4,0 km/h (1 Bft) SW 225 15,3 C 21,0 C
11.09.2012 19:11 20,9 C 70 % 1008,3 hPa 0,0 l/m 2,5 km/h (1 Bft) SW 225 15,2 C 20,9 C
11.09.2012 19:16 20,9 C 70 % 1008,3 hPa 0,0 l/m 2,5 km/h (1 Bft) SW 225 15,2 C 20,9 C
11.09.2012 19:21 20,8 C 70 % 1008,4 hPa 0,0 l/m 2,5 km/h (1 Bft) S-SW 202 15,1 C 20,8 C
11.09.2012 19:26 20,7 C 70 % 1008,4 hPa 0,0 l/m 0,0 km/h (0 Bft) S 180 15,0 C 20,7 C
11.09.2012 19:31 20,6 C 70 % 1008,3 hPa 0,0 l/m 3,6 km/h (1 Bft) S-SW 202 14,9 C 20,6 C
11.09.2012 19:36 20,5 C 71 % 1008,4 hPa 0,0 l/m 4,0 km/h (1 Bft) S-SW 202 15,1 C 20,5 C
11.09.2012 19:41 20,4 C 71 % 1008,3 hPa 0,0 l/m 2,2 km/h (1 Bft) S-SW 202 15,0 C 20,4 C
11.09.2012 19:46 20,4 C 71 % 1008,4 hPa 0,0 l/m 2,5 km/h (1 Bft) S 180 15,0 C 20,4 C
11.09.2012 19:51 20,3 C 71 % 1008,3 hPa 0,0 l/m 0,0 km/h (0 Bft) S-SO 157 14,9 C 20,3 C
11.09.2012 19:56 20,3 C 71 % 1008,1 hPa 0,0 l/m 0,0 km/h (0 Bft) W 270 14,9 C 20,3 C
11.09.2012 20:01 20,3 C 72 % 1008,9 hPa 0,0 l/m 2,5 km/h (1 Bft) N-NO 22 15,1 C 20,3 C
11.09.2012 20:06 19,9 C 72 % 1010,1 hPa 3,1 l/m 19,4 km/h (3 Bft) W 270 14,7 C 19,9 C
11.09.2012 20:11 18,9 C 75 % 1009,7 hPa 7,8 l/m 8,3 km/h (2 Bft) NW 315 14,4 C 18,9 C
11.09.2012 20:16 18,1 C 78 % 1009,8 hPa 0,5 l/m 6,1 km/h (2 Bft) NW 315 14,2 C 18,1 C
11.09.2012 20:21 17,6 C 79 % 1010,0 hPa 0,5 l/m 9,7 km/h (2 Bft) W-NW 292 13,9 C 17,6 C
11.09.2012 20:26 17,2 C 81 % 1009,9 hPa 0,0 l/m 3,6 km/h (1 Bft) W 270 13,9 C 17,2 C
11.09.2012 20:31 16,9 C 82 % 1010,2 hPa 0,5 l/m 7,6 km/h (2 Bft) NW 315 13,8 C 16,9 C
11.09.2012 20:36 16,8 C 82 % 1010,3 hPa 0,0 l/m 13,3 km/h (3 Bft) NW 315 13,7 C 16,8 C
11.09.2012 20:41 16,6 C 83 % 1010,2 hPa 0,5 l/m 2,5 km/h (1 Bft) W-NW 292 13,7 C 16,6 C
11.09.2012 20:46 16,5 C 83 % 1010,2 hPa 0,5 l/m 7,9 km/h (2 Bft) W 270 13,6 C 16,5 C
11.09.2012 20:51 16,4 C 84 % 1010,3 hPa 0,5 l/m 2,9 km/h (1 Bft) W 270 13,7 C 16,4 C
11.09.2012 20:56 16,3 C 85 % 1010,4 hPa 0,5 l/m 6,8 km/h (2 Bft) W-NW 292 13,8 C 16,3 C
11.09.2012 21:01 16,2 C 85 % 1010,3 hPa 0,5 l/m 0,0 km/h (0 Bft) W-NW 292 13,7 C 16,2 C
11.09.2012 21:06 16,2 C 86 % 1010,4 hPa 0,0 l/m 5,4 km/h (1 Bft) NW 315 13,9 C 16,2 C
11.09.2012 21:11 16,2 C 86 % 1010,3 hPa 0,0 l/m 3,6 km/h (1 Bft) W-NW 292 13,9 C 16,2 C
11.09.2012 21:16 16,2 C 86 % 1010,2 hPa 0,0 l/m 9,4 km/h (2 Bft) NW 315 13,9 C 16,2 C
11.09.2012 21:21 16,1 C 87 % 1010,2 hPa 0,0 l/m 10,1 km/h (2 Bft) N-NW 337 13,9 C 16,1 C
11.09.2012 21:26 16,1 C 87 % 1010,1 hPa 0,0 l/m 9,4 km/h (2 Bft) NW 315 13,9 C 16,1 C
11.09.2012 21:31 16,1 C 87 % 1010,3 hPa 0,0 l/m 5,8 km/h (2 Bft) W-NW 292 13,9 C 16,1 C
11.09.2012 21:36 16,1 C 88 % 1010,3 hPa 0,0 l/m 7,6 km/h (2 Bft) NW 315 14,1 C 16,1 C
11.09.2012 21:41 16,1 C 88 % 1010,3 hPa 0,0 l/m 18,4 km/h (3 Bft) N-NW 337 14,1 C 16,1 C
11.09.2012 21:46 16,1 C 88 % 1010,2 hPa 0,0 l/m 5,8 km/h (2 Bft) NW 315 14,1 C 16,1 C
11.09.2012 21:51 16,0 C 88 % 1010,3 hPa 0,0 l/m 9,0 km/h (2 Bft) W 270 14,0 C 16,0 C
11.09.2012 21:56 15,9 C 88 % 1010,4 hPa 0,0 l/m 13,3 km/h (3 Bft) NW 315 13,9 C 15,9 C
11.09.2012 22:01 15,9 C 87 % 1010,4 hPa 0,0 l/m 13,0 km/h (3 Bft) W-NW 292 13,7 C 15,9 C
11.09.2012 22:06 15,9 C 87 % 1010,5 hPa 0,0 l/m 10,1 km/h (2 Bft) W-NW 292 13,7 C 15,9 C
11.09.2012 22:11 15,9 C 87 % 1010,4 hPa 0,0 l/m 5,8 km/h (2 Bft) W-NW 292 13,7 C 15,9 C
11.09.2012 22:16 15,8 C 87 % 1010,5 hPa 0,5 l/m 8,3 km/h (2 Bft) W-NW 292 13,6 C 15,8 C
11.09.2012 22:21 15,8 C 87 % 1010,5 hPa 0,0 l/m 2,9 km/h (1 Bft) W 270 13,6 C 15,8 C
11.09.2012 22:26 15,8 C 87 % 1010,5 hPa 0,0 l/m 6,5 km/h (2 Bft) W-NW 292 13,6 C 15,8 C
11.09.2012 22:31 15,7 C 87 % 1010,2 hPa 0,0 l/m 7,9 km/h (2 Bft) NW 315 13,5 C 15,7 C
11.09.2012 22:36 15,6 C 88 % 1010,5 hPa 0,0 l/m 8,3 km/h (2 Bft) N-NW 337 13,6 C 15,6 C
11.09.2012 22:41 15,6 C 87 % 1010,5 hPa 0,0 l/m 7,9 km/h (2 Bft) N-NO 22 13,4 C 15,6 C
11.09.2012 22:46 15,5 C 87 % 1010,7 hPa 0,0 l/m 8,3 km/h (2 Bft) N-NW 337 13,3 C 15,5 C
11.09.2012 22:51 15,4 C 87 % 1010,7 hPa 0,0 l/m 6,1 km/h (2 Bft) NO 45 13,2 C 15,4 C
11.09.2012 22:56 15,4 C 87 % 1010,9 hPa 0,0 l/m 9,0 km/h (2 Bft) N-NW 337 13,2 C 15,4 C
11.09.2012 23:01 15,3 C 87 % 1010,9 hPa 0,0 l/m 5,0 km/h (1 Bft) NW 315 13,1 C 15,3 C
11.09.2012 23:06 15,2 C 87 % 1010,9 hPa 0,0 l/m 5,8 km/h (2 Bft) N-NW 337 13,0 C 15,2 C
11.09.2012 23:11 15,2 C 87 % 1010,8 hPa 0,0 l/m 10,4 km/h (2 Bft) NW 315 13,0 C 15,2 C
11.09.2012 23:16 15,1 C 87 % 1010,8 hPa 0,0 l/m 6,1 km/h (2 Bft) NW 315 13,0 C 15,1 C
11.09.2012 23:21 14,9 C 87 % 1010,8 hPa 0,0 l/m 5,0 km/h (1 Bft) NW 315 12,8 C 14,9 C
11.09.2012 23:26 14,9 C 87 % 1010,8 hPa 0,0 l/m 2,9 km/h (1 Bft) W-NW 292 12,8 C 14,9 C
11.09.2012 23:31 14,9 C 87 % 1010,7 hPa 0,0 l/m 5,4 km/h (1 Bft) NW 315 12,8 C 14,9 C
11.09.2012 23:36 14,9 C 87 % 1010,9 hPa 0,0 l/m 5,4 km/h (1 Bft) W-NW 292 12,8 C 14,9 C
11.09.2012 23:41 14,9 C 87 % 1010,9 hPa 0,0 l/m 7,9 km/h (2 Bft) NW 315 12,8 C 14,9 C
11.09.2012 23:46 14,9 C 87 % 1011,0 hPa 0,0 l/m 10,4 km/h (2 Bft) NW 315 12,8 C 14,9 C
11.09.2012 23:51 14,8 C 87 % 1010,8 hPa 0,0 l/m 9,7 km/h (2 Bft) W-NW 292 12,7 C 14,8 C
11.09.2012 23:56 14,7 C 87 % 1011,0 hPa 0,0 l/m 8,6 km/h (2 Bft) NW 315 12,6 C 14,7 C
_ Min-Zeit 06:41 11:36 18:11 - 00:06 - - 06:01 06:41
Minimum _ 14,3 C 50 % 1008,1 hPa - 0,0 km/h (0 Bft) - - 10,3 C 14,3 C
_ Max-Zeit 11:31 21:36 00:01 20:11 11:26 - - 14:36 11:31
Maximum _ 24,9 C 88 % 1014,1 hPa 7,8 l/m 24,5 km/h
W-SW (4 Bft)
- - 16,8 C 24,9 C
Durchschnitt _ 18,8 C 71 % 1011,2 hPa #16,6 l/m 5,5 km/h (1 Bft) W-SW - 13,2 C 18,8 C
(c) by David Heller